sensor_id;sensor_type;location;lat;lon;timestamp;temperature;humidity
13375;DHT22;6756;51.354;15.754;2024-02-26T00:03:16;-2.30;99.90
13375;DHT22;6756;51.354;15.754;2024-02-26T00:07:17;-2.40;99.90
13375;DHT22;6756;51.354;15.754;2024-02-26T00:11:18;-2.40;99.90
13375;DHT22;6756;51.354;15.754;2024-02-26T00:15:18;-2.40;99.90
13375;DHT22;6756;51.354;15.754;2024-02-26T00:19:19;-2.30;99.90
13375;DHT22;6756;51.354;15.754;2024-02-26T00:23:20;-2.30;99.90
13375;DHT22;6756;51.354;15.754;2024-02-26T00:27:20;-2.20;99.90
13375;DHT22;6756;51.354;15.754;2024-02-26T00:31:21;-2.20;99.90
13375;DHT22;6756;51.354;15.754;2024-02-26T00:35:22;-2.20;99.90
13375;DHT22;6756;51.354;15.754;2024-02-26T00:39:23;-2.20;99.90
13375;DHT22;6756;51.354;15.754;2024-02-26T00:43:24;-2.30;99.90
13375;DHT22;6756;51.354;15.754;2024-02-26T00:47:24;-2.30;99.90
13375;DHT22;6756;51.354;15.754;2024-02-26T00:51:25;-2.40;99.90
13375;DHT22;6756;51.354;15.754;2024-02-26T00:55:26;-2.50;99.90
13375;DHT22;6756;51.354;15.754;2024-02-26T00:59:27;-2.50;99.90
13375;DHT22;6756;51.354;15.754;2024-02-26T01:03:27;-2.50;99.90
13375;DHT22;6756;51.354;15.754;2024-02-26T01:07:28;-2.60;99.90
13375;DHT22;6756;51.354;15.754;2024-02-26T01:11:29;-2.60;99.90
13375;DHT22;6756;51.354;15.754;2024-02-26T01:15:30;-2.70;99.90
13375;DHT22;6756;51.354;15.754;2024-02-26T01:19:30;-2.70;99.90
13375;DHT22;6756;51.354;15.754;2024-02-26T01:23:31;-2.70;99.90
13375;DHT22;6756;51.354;15.754;2024-02-26T01:27:32;-2.70;99.90
13375;DHT22;6756;51.354;15.754;2024-02-26T01:31:33;-2.80;99.90
13375;DHT22;6756;51.354;15.754;2024-02-26T01:35:34;-2.80;99.90
13375;DHT22;6756;51.354;15.754;2024-02-26T01:39:35;-2.80;99.90
13375;DHT22;6756;51.354;15.754;2024-02-26T01:43:35;-2.80;99.90
13375;DHT22;6756;51.354;15.754;2024-02-26T01:47:36;-2.90;99.90
13375;DHT22;6756;51.354;15.754;2024-02-26T01:51:39;-2.90;99.90
13375;DHT22;6756;51.354;15.754;2024-02-26T01:55:40;-3.00;99.90
13375;DHT22;6756;51.354;15.754;2024-02-26T01:59:41;-3.00;99.90
13375;DHT22;6756;51.354;15.754;2024-02-26T02:03:43;-3.00;99.90
13375;DHT22;6756;51.354;15.754;2024-02-26T02:07:45;-3.00;99.90
13375;DHT22;6756;51.354;15.754;2024-02-26T02:11:48;-3.10;99.90
13375;DHT22;6756;51.354;15.754;2024-02-26T02:15:49;-3.10;99.90
13375;DHT22;6756;51.354;15.754;2024-02-26T02:19:50;-3.10;99.90
13375;DHT22;6756;51.354;15.754;2024-02-26T02:23:51;-3.10;99.90
13375;DHT22;6756;51.354;15.754;2024-02-26T02:27:53;-3.10;99.90
13375;DHT22;6756;51.354;15.754;2024-02-26T02:31:55;-3.10;99.90
13375;DHT22;6756;51.354;15.754;2024-02-26T02:35:56;-3.20;99.90
13375;DHT22;6756;51.354;15.754;2024-02-26T02:39:58;-3.10;99.90
13375;DHT22;6756;51.354;15.754;2024-02-26T02:43:59;-3.10;99.90
13375;DHT22;6756;51.354;15.754;2024-02-26T02:48:00;-3.10;99.90
13375;DHT22;6756;51.354;15.754;2024-02-26T02:52:01;-3.20;99.90
13375;DHT22;6756;51.354;15.754;2024-02-26T02:56:02;-3.20;99.90
13375;DHT22;6756;51.354;15.754;2024-02-26T03:00:03;-3.20;99.90
13375;DHT22;6756;51.354;15.754;2024-02-26T03:04:04;-3.10;99.90
13375;DHT22;6756;51.354;15.754;2024-02-26T03:08:05;-3.10;99.90
13375;DHT22;6756;51.354;15.754;2024-02-26T03:12:06;-3.10;99.90
13375;DHT22;6756;51.354;15.754;2024-02-26T03:16:07;-3.10;99.90
13375;DHT22;6756;51.354;15.754;2024-02-26T03:20:08;-3.20;99.90
13375;DHT22;6756;51.354;15.754;2024-02-26T03:24:10;-3.20;99.90
13375;DHT22;6756;51.354;15.754;2024-02-26T03:28:10;-3.30;99.90
13375;DHT22;6756;51.354;15.754;2024-02-26T03:32:11;-3.30;99.90
13375;DHT22;6756;51.354;15.754;2024-02-26T03:36:12;-3.30;99.90
13375;DHT22;6756;51.354;15.754;2024-02-26T03:40:13;-3.30;99.90
13375;DHT22;6756;51.354;15.754;2024-02-26T03:44:15;-3.30;99.90
13375;DHT22;6756;51.354;15.754;2024-02-26T03:48:15;-3.30;99.90
13375;DHT22;6756;51.354;15.754;2024-02-26T03:52:16;-3.30;99.90
13375;DHT22;6756;51.354;15.754;2024-02-26T03:56:17;-3.40;99.90
13375;DHT22;6756;51.354;15.754;2024-02-26T04:00:18;-3.40;99.90
13375;DHT22;6756;51.354;15.754;2024-02-26T04:04:19;-3.40;99.90
13375;DHT22;6756;51.354;15.754;2024-02-26T04:08:20;-3.50;99.90
13375;DHT22;6756;51.354;15.754;2024-02-26T04:12:20;-3.50;99.90
13375;DHT22;6756;51.354;15.754;2024-02-26T04:16:21;-3.50;99.90
13375;DHT22;6756;51.354;15.754;2024-02-26T04:20:22;-3.50;99.90
13375;DHT22;6756;51.354;15.754;2024-02-26T04:24:23;-3.50;99.90
13375;DHT22;6756;51.354;15.754;2024-02-26T04:28:23;-3.50;99.90
13375;DHT22;6756;51.354;15.754;2024-02-26T04:32:26;-3.50;99.90
13375;DHT22;6756;51.354;15.754;2024-02-26T04:36:28;-3.30;99.90
13375;DHT22;6756;51.354;15.754;2024-02-26T04:40:29;-3.30;99.90
13375;DHT22;6756;51.354;15.754;2024-02-26T04:44:29;-3.00;99.90
13375;DHT22;6756;51.354;15.754;2024-02-26T04:48:31;-2.90;99.90
13375;DHT22;6756;51.354;15.754;2024-02-26T04:52:31;-3.00;99.90
13375;DHT22;6756;51.354;15.754;2024-02-26T04:56:32;-3.10;99.90
13375;DHT22;6756;51.354;15.754;2024-02-26T05:00:33;-3.20;99.90
13375;DHT22;6756;51.354;15.754;2024-02-26T05:04:33;-3.20;99.90
13375;DHT22;6756;51.354;15.754;2024-02-26T05:08:34;-3.10;99.90
13375;DHT22;6756;51.354;15.754;2024-02-26T05:12:36;-3.10;99.90
13375;DHT22;6756;51.354;15.754;2024-02-26T05:16:37;-3.10;99.90
13375;DHT22;6756;51.354;15.754;2024-02-26T05:20:39;-3.20;99.90
13375;DHT22;6756;51.354;15.754;2024-02-26T05:24:39;-3.20;99.90
13375;DHT22;6756;51.354;15.754;2024-02-26T05:28:41;-3.20;99.90
13375;DHT22;6756;51.354;15.754;2024-02-26T05:32:42;-3.20;99.90
13375;DHT22;6756;51.354;15.754;2024-02-26T05:36:42;-3.20;99.90
13375;DHT22;6756;51.354;15.754;2024-02-26T05:40:43;-3.20;99.90
13375;DHT22;6756;51.354;15.754;2024-02-26T05:44:46;-3.10;99.90
13375;DHT22;6756;51.354;15.754;2024-02-26T05:48:49;-3.10;99.90
13375;DHT22;6756;51.354;15.754;2024-02-26T05:52:50;-3.00;99.90
13375;DHT22;6756;51.354;15.754;2024-02-26T05:56:50;-3.10;99.90
13375;DHT22;6756;51.354;15.754;2024-02-26T06:00:51;-3.10;99.90
13375;DHT22;6756;51.354;15.754;2024-02-26T06:04:52;-3.20;99.90
13375;DHT22;6756;51.354;15.754;2024-02-26T06:08:53;-3.20;99.90
13375;DHT22;6756;51.354;15.754;2024-02-26T06:12:54;-3.10;99.90
13375;DHT22;6756;51.354;15.754;2024-02-26T06:16:54;-3.10;99.90
13375;DHT22;6756;51.354;15.754;2024-02-26T06:20:55;-3.00;99.90
13375;DHT22;6756;51.354;15.754;2024-02-26T06:24:56;-2.90;99.90
13375;DHT22;6756;51.354;15.754;2024-02-26T06:28:57;-2.80;99.90
13375;DHT22;6756;51.354;15.754;2024-02-26T06:32:58;-2.70;99.90
13375;DHT22;6756;51.354;15.754;2024-02-26T06:36:58;-2.70;99.90
13375;DHT22;6756;51.354;15.754;2024-02-26T06:40:59;-2.60;99.90
13375;DHT22;6756;51.354;15.754;2024-02-26T06:45:00;-2.50;99.90
13375;DHT22;6756;51.354;15.754;2024-02-26T06:49:01;-2.40;99.90
13375;DHT22;6756;51.354;15.754;2024-02-26T06:53:02;-2.30;99.90
13375;DHT22;6756;51.354;15.754;2024-02-26T06:57:03;-2.10;99.90
13375;DHT22;6756;51.354;15.754;2024-02-26T07:01:04;-2.00;99.90
13375;DHT22;6756;51.354;15.754;2024-02-26T07:05:05;-1.80;99.90
13375;DHT22;6756;51.354;15.754;2024-02-26T07:09:06;-1.60;99.90
13375;DHT22;6756;51.354;15.754;2024-02-26T07:13:07;-1.50;99.90
13375;DHT22;6756;51.354;15.754;2024-02-26T07:17:08;-1.40;99.90
13375;DHT22;6756;51.354;15.754;2024-02-26T07:21:08;-1.20;99.90
13375;DHT22;6756;51.354;15.754;2024-02-26T07:25:10;-1.00;99.90
13375;DHT22;6756;51.354;15.754;2024-02-26T07:29:13;-0.80;99.90
13375;DHT22;6756;51.354;15.754;2024-02-26T07:33:14;-0.60;99.90
13375;DHT22;6756;51.354;15.754;2024-02-26T07:37:15;-0.30;99.90
13375;DHT22;6756;51.354;15.754;2024-02-26T07:41:15;-0.20;99.90
13375;DHT22;6756;51.354;15.754;2024-02-26T07:45:16;0.00;99.90
13375;DHT22;6756;51.354;15.754;2024-02-26T07:49:21;0.30;99.90
13375;DHT22;6756;51.354;15.754;2024-02-26T07:53:22;0.50;99.90
13375;DHT22;6756;51.354;15.754;2024-02-26T07:57:22;0.80;99.90
13375;DHT22;6756;51.354;15.754;2024-02-26T08:01:23;1.00;99.90
13375;DHT22;6756;51.354;15.754;2024-02-26T08:05:26;1.20;99.90
13375;DHT22;6756;51.354;15.754;2024-02-26T08:09:27;1.40;99.90
13375;DHT22;6756;51.354;15.754;2024-02-26T08:13:28;1.60;99.90
13375;DHT22;6756;51.354;15.754;2024-02-26T08:17:28;1.80;99.90
13375;DHT22;6756;51.354;15.754;2024-02-26T08:21:29;2.10;99.90
13375;DHT22;6756;51.354;15.754;2024-02-26T08:25:30;2.30;99.90
13375;DHT22;6756;51.354;15.754;2024-02-26T08:29:30;2.70;99.90
13375;DHT22;6756;51.354;15.754;2024-02-26T08:33:31;3.00;99.90
13375;DHT22;6756;51.354;15.754;2024-02-26T08:37:32;3.40;99.90
13375;DHT22;6756;51.354;15.754;2024-02-26T08:41:33;3.80;99.90
13375;DHT22;6756;51.354;15.754;2024-02-26T08:45:33;4.10;99.90
13375;DHT22;6756;51.354;15.754;2024-02-26T08:49:34;4.40;99.90
13375;DHT22;6756;51.354;15.754;2024-02-26T08:53:38;4.60;99.90
13375;DHT22;6756;51.354;15.754;2024-02-26T08:57:39;4.80;99.90
13375;DHT22;6756;51.354;15.754;2024-02-26T09:01:40;5.00;99.90
13375;DHT22;6756;51.354;15.754;2024-02-26T09:05:41;5.30;99.90
13375;DHT22;6756;51.354;15.754;2024-02-26T09:09:42;5.50;99.90
13375;DHT22;6756;51.354;15.754;2024-02-26T09:13:43;5.70;99.90
13375;DHT22;6756;51.354;15.754;2024-02-26T09:17:44;5.90;99.90
13375;DHT22;6756;51.354;15.754;2024-02-26T09:21:45;6.30;99.90
13375;DHT22;6756;51.354;15.754;2024-02-26T09:25:46;6.60;99.90
13375;DHT22;6756;51.354;15.754;2024-02-26T09:29:47;6.90;99.90
13375;DHT22;6756;51.354;15.754;2024-02-26T09:33:48;7.30;99.90
13375;DHT22;6756;51.354;15.754;2024-02-26T09:37:49;7.50;99.90
13375;DHT22;6756;51.354;15.754;2024-02-26T09:41:50;7.90;1.00
13375;DHT22;6756;51.354;15.754;2024-02-26T09:45:53;8.20;99.90
13375;DHT22;6756;51.354;15.754;2024-02-26T09:49:56;8.40;91.00
13375;DHT22;6756;51.354;15.754;2024-02-26T09:53:59;8.80;29.00
13375;DHT22;6756;51.354;15.754;2024-02-26T09:58:01;9.10;1.00
13375;DHT22;6756;51.354;15.754;2024-02-26T10:02:04;9.20;1.00
13375;DHT22;6756;51.354;15.754;2024-02-26T10:06:06;9.40;1.00
13375;DHT22;6756;51.354;15.754;2024-02-26T10:10:08;9.50;1.00
13375;DHT22;6756;51.354;15.754;2024-02-26T10:14:09;9.60;1.00
13375;DHT22;6756;51.354;15.754;2024-02-26T10:18:10;9.90;1.00
13375;DHT22;6756;51.354;15.754;2024-02-26T10:22:11;10.10;1.00
13375;DHT22;6756;51.354;15.754;2024-02-26T10:26:12;10.30;1.00
13375;DHT22;6756;51.354;15.754;2024-02-26T10:30:17;10.50;1.00
13375;DHT22;6756;51.354;15.754;2024-02-26T10:34:19;10.70;1.00
13375;DHT22;6756;51.354;15.754;2024-02-26T10:38:20;10.90;1.00
13375;DHT22;6756;51.354;15.754;2024-02-26T10:42:21;11.20;1.00
13375;DHT22;6756;51.354;15.754;2024-02-26T10:46:22;11.20;1.00
13375;DHT22;6756;51.354;15.754;2024-02-26T10:50:23;11.30;1.00
13375;DHT22;6756;51.354;15.754;2024-02-26T10:54:26;11.50;1.00
13375;DHT22;6756;51.354;15.754;2024-02-26T10:58:29;11.70;1.00
13375;DHT22;6756;51.354;15.754;2024-02-26T11:02:32;11.80;1.00
13375;DHT22;6756;51.354;15.754;2024-02-26T11:06:35;11.90;1.00
13375;DHT22;6756;51.354;15.754;2024-02-26T11:10:37;12.00;1.00
13375;DHT22;6756;51.354;15.754;2024-02-26T11:14:44;12.10;1.00
13375;DHT22;6756;51.354;15.754;2024-02-26T11:18:49;12.20;1.00
13375;DHT22;6756;51.354;15.754;2024-02-26T11:22:52;12.40;1.00
13375;DHT22;6756;51.354;15.754;2024-02-26T11:27:02;12.50;1.00
13375;DHT22;6756;51.354;15.754;2024-02-26T11:31:04;12.60;1.00
13375;DHT22;6756;51.354;15.754;2024-02-26T11:35:06;12.80;1.00
13375;DHT22;6756;51.354;15.754;2024-02-26T11:39:08;12.90;1.00
13375;DHT22;6756;51.354;15.754;2024-02-26T11:43:12;12.90;1.00
13375;DHT22;6756;51.354;15.754;2024-02-26T11:47:20;13.00;1.00
13375;DHT22;6756;51.354;15.754;2024-02-26T11:51:32;13.10;1.00
13375;DHT22;6756;51.354;15.754;2024-02-26T11:55:33;13.30;1.00
13375;DHT22;6756;51.354;15.754;2024-02-26T11:59:38;13.40;1.00
13375;DHT22;6756;51.354;15.754;2024-02-26T12:03:39;13.60;1.00
13375;DHT22;6756;51.354;15.754;2024-02-26T12:07:42;13.50;1.00
13375;DHT22;6756;51.354;15.754;2024-02-26T12:11:43;13.50;1.00
13375;DHT22;6756;51.354;15.754;2024-02-26T12:15:55;13.50;1.00
13375;DHT22;6756;51.354;15.754;2024-02-26T12:20:11;13.50;1.00
13375;DHT22;6756;51.354;15.754;2024-02-26T12:24:14;13.60;1.00
13375;DHT22;6756;51.354;15.754;2024-02-26T12:28:19;13.50;1.00
13375;DHT22;6756;51.354;15.754;2024-02-26T12:32:20;13.40;1.00
13375;DHT22;6756;51.354;15.754;2024-02-26T12:36:21;13.30;1.00
13375;DHT22;6756;51.354;15.754;2024-02-26T12:40:23;13.30;1.00
13375;DHT22;6756;51.354;15.754;2024-02-26T12:44:25;13.30;1.00
13375;DHT22;6756;51.354;15.754;2024-02-26T12:48:26;13.30;1.00
13375;DHT22;6756;51.354;15.754;2024-02-26T12:52:28;13.40;1.00
13375;DHT22;6756;51.354;15.754;2024-02-26T12:56:29;13.30;1.00
13375;DHT22;6756;51.354;15.754;2024-02-26T13:00:31;13.30;1.00
13375;DHT22;6756;51.354;15.754;2024-02-26T13:04:32;13.30;1.00
13375;DHT22;6756;51.354;15.754;2024-02-26T13:08:34;13.40;1.00
13375;DHT22;6756;51.354;15.754;2024-02-26T13:12:35;13.40;1.00
13375;DHT22;6756;51.354;15.754;2024-02-26T13:16:35;13.50;1.00
13375;DHT22;6756;51.354;15.754;2024-02-26T13:20:36;13.40;1.00
13375;DHT22;6756;51.354;15.754;2024-02-26T13:24:37;13.40;1.00
13375;DHT22;6756;51.354;15.754;2024-02-26T13:28:38;13.30;1.00
13375;DHT22;6756;51.354;15.754;2024-02-26T13:32:40;13.20;1.00
13375;DHT22;6756;51.354;15.754;2024-02-26T13:36:41;13.00;1.00
13375;DHT22;6756;51.354;15.754;2024-02-26T13:40:42;12.90;1.00
13375;DHT22;6756;51.354;15.754;2024-02-26T13:44:43;12.80;1.00
13375;DHT22;6756;51.354;15.754;2024-02-26T13:48:43;12.80;1.00
13375;DHT22;6756;51.354;15.754;2024-02-26T13:52:44;12.70;1.00
13375;DHT22;6756;51.354;15.754;2024-02-26T13:56:45;12.70;1.00
13375;DHT22;6756;51.354;15.754;2024-02-26T14:00:51;12.70;1.00
13375;DHT22;6756;51.354;15.754;2024-02-26T14:04:52;12.70;1.00
13375;DHT22;6756;51.354;15.754;2024-02-26T14:08:53;12.50;1.00
13375;DHT22;6756;51.354;15.754;2024-02-26T14:12:54;12.40;1.00
13375;DHT22;6756;51.354;15.754;2024-02-26T14:16:54;12.40;1.00
13375;DHT22;6756;51.354;15.754;2024-02-26T14:20:55;12.30;1.00
13375;DHT22;6756;51.354;15.754;2024-02-26T14:24:57;12.10;1.00
13375;DHT22;6756;51.354;15.754;2024-02-26T14:28:57;12.00;1.00
13375;DHT22;6756;51.354;15.754;2024-02-26T14:32:58;11.90;1.00
13375;DHT22;6756;51.354;15.754;2024-02-26T14:36:59;11.90;1.00
13375;DHT22;6756;51.354;15.754;2024-02-26T14:41:00;11.80;1.00
13375;DHT22;6756;51.354;15.754;2024-02-26T14:45:00;11.80;1.00
13375;DHT22;6756;51.354;15.754;2024-02-26T14:49:01;11.70;1.00
13375;DHT22;6756;51.354;15.754;2024-02-26T14:53:02;11.70;1.00
13375;DHT22;6756;51.354;15.754;2024-02-26T14:57:04;11.60;1.00
13375;DHT22;6756;51.354;15.754;2024-02-26T15:01:06;11.60;1.00
13375;DHT22;6756;51.354;15.754;2024-02-26T15:05:07;11.50;1.00
13375;DHT22;6756;51.354;15.754;2024-02-26T15:09:10;11.50;1.00
13375;DHT22;6756;51.354;15.754;2024-02-26T15:13:11;11.40;1.00
13375;DHT22;6756;51.354;15.754;2024-02-26T15:17:12;11.30;1.00
13375;DHT22;6756;51.354;15.754;2024-02-26T15:21:14;11.20;1.00
13375;DHT22;6756;51.354;15.754;2024-02-26T15:25:15;11.20;1.00
13375;DHT22;6756;51.354;15.754;2024-02-26T15:29:17;11.10;1.00
13375;DHT22;6756;51.354;15.754;2024-02-26T15:33:17;11.00;1.00
13375;DHT22;6756;51.354;15.754;2024-02-26T15:37:19;10.80;1.00
13375;DHT22;6756;51.354;15.754;2024-02-26T15:41:20;10.80;1.00
13375;DHT22;6756;51.354;15.754;2024-02-26T15:45:20;10.70;1.00
13375;DHT22;6756;51.354;15.754;2024-02-26T15:49:21;10.50;1.00
13375;DHT22;6756;51.354;15.754;2024-02-26T15:53:22;10.40;1.00
13375;DHT22;6756;51.354;15.754;2024-02-26T15:57:23;10.30;1.00
13375;DHT22;6756;51.354;15.754;2024-02-26T16:01:24;10.10;1.00
13375;DHT22;6756;51.354;15.754;2024-02-26T16:05:24;10.00;1.00
13375;DHT22;6756;51.354;15.754;2024-02-26T16:09:25;9.90;1.00
13375;DHT22;6756;51.354;15.754;2024-02-26T16:13:26;9.80;1.00
13375;DHT22;6756;51.354;15.754;2024-02-26T16:17:33;9.70;1.00
13375;DHT22;6756;51.354;15.754;2024-02-26T16:21:34;9.50;1.00
13375;DHT22;6756;51.354;15.754;2024-02-26T16:25:35;9.30;1.00
13375;DHT22;6756;51.354;15.754;2024-02-26T16:29:37;9.20;1.00
13375;DHT22;6756;51.354;15.754;2024-02-26T16:33:38;9.10;1.00
13375;DHT22;6756;51.354;15.754;2024-02-26T16:37:39;9.00;1.00
13375;DHT22;6756;51.354;15.754;2024-02-26T16:41:40;8.90;1.00
13375;DHT22;6756;51.354;15.754;2024-02-26T16:45:41;8.70;1.00
13375;DHT22;6756;51.354;15.754;2024-02-26T16:49:42;8.60;1.00
13375;DHT22;6756;51.354;15.754;2024-02-26T16:53:42;8.50;2.90
13375;DHT22;6756;51.354;15.754;2024-02-26T16:57:43;8.40;18.80
13375;DHT22;6756;51.354;15.754;2024-02-26T17:01:49;8.30;37.80
13375;DHT22;6756;51.354;15.754;2024-02-26T17:05:50;8.30;55.20
13375;DHT22;6756;51.354;15.754;2024-02-26T17:09:50;8.20;66.30
13375;DHT22;6756;51.354;15.754;2024-02-26T17:13:52;8.20;75.80
13375;DHT22;6756;51.354;15.754;2024-02-26T17:17:53;8.10;84.50
13375;DHT22;6756;51.354;15.754;2024-02-26T17:21:54;8.00;96.20
13375;DHT22;6756;51.354;15.754;2024-02-26T17:25:54;7.90;99.90
13375;DHT22;6756;51.354;15.754;2024-02-26T17:29:55;7.80;99.90
13375;DHT22;6756;51.354;15.754;2024-02-26T17:33:56;7.70;99.90
13375;DHT22;6756;51.354;15.754;2024-02-26T17:37:57;7.70;99.90
13375;DHT22;6756;51.354;15.754;2024-02-26T17:41:58;7.60;99.90
13375;DHT22;6756;51.354;15.754;2024-02-26T17:45:59;7.60;99.90
13375;DHT22;6756;51.354;15.754;2024-02-26T17:50:00;7.50;99.90
13375;DHT22;6756;51.354;15.754;2024-02-26T17:54:01;7.40;99.90
13375;DHT22;6756;51.354;15.754;2024-02-26T17:58:02;7.40;99.90
13375;DHT22;6756;51.354;15.754;2024-02-26T18:02:03;7.30;99.90
13375;DHT22;6756;51.354;15.754;2024-02-26T18:06:05;7.30;99.90
13375;DHT22;6756;51.354;15.754;2024-02-26T18:10:07;7.20;99.90
13375;DHT22;6756;51.354;15.754;2024-02-26T18:14:12;7.20;99.90
13375;DHT22;6756;51.354;15.754;2024-02-26T18:18:12;7.10;99.90
13375;DHT22;6756;51.354;15.754;2024-02-26T18:22:13;7.10;99.90
13375;DHT22;6756;51.354;15.754;2024-02-26T18:26:14;7.00;99.90
13375;DHT22;6756;51.354;15.754;2024-02-26T18:30:19;7.00;99.90
13375;DHT22;6756;51.354;15.754;2024-02-26T18:34:23;6.90;99.90
13375;DHT22;6756;51.354;15.754;2024-02-26T18:38:25;6.90;99.90
13375;DHT22;6756;51.354;15.754;2024-02-26T18:42:27;6.90;99.90
13375;DHT22;6756;51.354;15.754;2024-02-26T18:46:29;6.80;99.90
13375;DHT22;6756;51.354;15.754;2024-02-26T18:50:30;6.70;99.90
13375;DHT22;6756;51.354;15.754;2024-02-26T18:54:31;6.60;99.90
13375;DHT22;6756;51.354;15.754;2024-02-26T18:58:32;6.60;1.00
13375;DHT22;6756;51.354;15.754;2024-02-26T19:02:33;6.50;1.00
13375;DHT22;6756;51.354;15.754;2024-02-26T19:06:34;6.40;1.00
13375;DHT22;6756;51.354;15.754;2024-02-26T19:10:36;6.30;1.00
13375;DHT22;6756;51.354;15.754;2024-02-26T19:14:37;6.20;1.00
13375;DHT22;6756;51.354;15.754;2024-02-26T19:18:39;6.10;1.00
13375;DHT22;6756;51.354;15.754;2024-02-26T19:22:40;6.00;1.00
13375;DHT22;6756;51.354;15.754;2024-02-26T19:26:42;5.90;1.00
13375;DHT22;6756;51.354;15.754;2024-02-26T19:30:43;5.80;1.00
13375;DHT22;6756;51.354;15.754;2024-02-26T19:34:44;5.70;26.00
13375;DHT22;6756;51.354;15.754;2024-02-26T19:38:45;5.60;99.90
13375;DHT22;6756;51.354;15.754;2024-02-26T19:42:45;5.50;99.90
13375;DHT22;6756;51.354;15.754;2024-02-26T19:46:46;5.50;99.90
13375;DHT22;6756;51.354;15.754;2024-02-26T19:50:47;5.40;99.90
13375;DHT22;6756;51.354;15.754;2024-02-26T19:54:48;5.30;99.90
13375;DHT22;6756;51.354;15.754;2024-02-26T19:58:49;5.20;99.90
13375;DHT22;6756;51.354;15.754;2024-02-26T20:02:50;5.20;99.90
13375;DHT22;6756;51.354;15.754;2024-02-26T20:06:52;5.10;1.00
13375;DHT22;6756;51.354;15.754;2024-02-26T20:10:53;5.00;97.80
13375;DHT22;6756;51.354;15.754;2024-02-26T20:14:55;5.00;99.90
13375;DHT22;6756;51.354;15.754;2024-02-26T20:18:56;5.00;1.00
13375;DHT22;6756;51.354;15.754;2024-02-26T20:22:57;4.90;1.00
13375;DHT22;6756;51.354;15.754;2024-02-26T20:26:58;4.90;46.90
13375;DHT22;6756;51.354;15.754;2024-02-26T20:30:59;4.90;99.90
13375;DHT22;6756;51.354;15.754;2024-02-26T20:35:00;4.90;1.00
13375;DHT22;6756;51.354;15.754;2024-02-26T20:39:03;4.80;99.90
13375;DHT22;6756;51.354;15.754;2024-02-26T20:43:04;4.80;99.90
13375;DHT22;6756;51.354;15.754;2024-02-26T20:47:05;4.80;1.00
13375;DHT22;6756;51.354;15.754;2024-02-26T20:51:06;4.70;1.00
13375;DHT22;6756;51.354;15.754;2024-02-26T20:55:08;4.70;99.70
13375;DHT22;6756;51.354;15.754;2024-02-26T20:59:09;4.60;99.90
13375;DHT22;6756;51.354;15.754;2024-02-26T21:03:10;4.60;99.90
13375;DHT22;6756;51.354;15.754;2024-02-26T21:07:12;4.50;1.00
13375;DHT22;6756;51.354;15.754;2024-02-26T21:11:16;4.50;71.00
13375;DHT22;6756;51.354;15.754;2024-02-26T21:15:17;4.40;99.90
13375;DHT22;6756;51.354;15.754;2024-02-26T21:19:18;4.30;99.90
13375;DHT22;6756;51.354;15.754;2024-02-26T21:23:19;4.30;1.00
13375;DHT22;6756;51.354;15.754;2024-02-26T21:27:22;4.20;99.90
13375;DHT22;6756;51.354;15.754;2024-02-26T21:31:23;4.10;1.00
13375;DHT22;6756;51.354;15.754;2024-02-26T21:35:23;4.10;57.00
13375;DHT22;6756;51.354;15.754;2024-02-26T21:39:24;4.00;99.90
13375;DHT22;6756;51.354;15.754;2024-02-26T21:43:25;3.90;99.90
13375;DHT22;6756;51.354;15.754;2024-02-26T21:47:26;3.80;1.00
13375;DHT22;6756;51.354;15.754;2024-02-26T21:51:27;3.70;99.90
13375;DHT22;6756;51.354;15.754;2024-02-26T21:55:28;3.70;99.90
13375;DHT22;6756;51.354;15.754;2024-02-26T21:59:29;3.60;1.00
13375;DHT22;6756;51.354;15.754;2024-02-26T22:03:30;3.50;1.00
13375;DHT22;6756;51.354;15.754;2024-02-26T22:07:31;3.40;99.90
13375;DHT22;6756;51.354;15.754;2024-02-26T22:11:32;3.20;99.90
13375;DHT22;6756;51.354;15.754;2024-02-26T22:15:33;3.10;1.00
13375;DHT22;6756;51.354;15.754;2024-02-26T22:19:34;2.80;99.90
13375;DHT22;6756;51.354;15.754;2024-02-26T22:23:35;2.70;99.90
13375;DHT22;6756;51.354;15.754;2024-02-26T22:27:36;2.60;99.90
13375;DHT22;6756;51.354;15.754;2024-02-26T22:31:37;2.70;99.90
13375;DHT22;6756;51.354;15.754;2024-02-26T22:35:38;2.60;99.90
13375;DHT22;6756;51.354;15.754;2024-02-26T22:39:39;2.50;99.90
13375;DHT22;6756;51.354;15.754;2024-02-26T22:43:40;2.40;99.90
13375;DHT22;6756;51.354;15.754;2024-02-26T22:47:41;2.30;99.90
13375;DHT22;6756;51.354;15.754;2024-02-26T22:51:42;2.20;99.90
13375;DHT22;6756;51.354;15.754;2024-02-26T22:55:42;2.10;99.90
13375;DHT22;6756;51.354;15.754;2024-02-26T22:59:48;2.10;99.90
13375;DHT22;6756;51.354;15.754;2024-02-26T23:03:48;2.00;99.90
13375;DHT22;6756;51.354;15.754;2024-02-26T23:07:50;1.90;99.90
13375;DHT22;6756;51.354;15.754;2024-02-26T23:11:50;1.90;99.90
13375;DHT22;6756;51.354;15.754;2024-02-26T23:15:52;1.80;99.90
13375;DHT22;6756;51.354;15.754;2024-02-26T23:19:54;1.80;99.90
13375;DHT22;6756;51.354;15.754;2024-02-26T23:23:55;1.90;99.90
13375;DHT22;6756;51.354;15.754;2024-02-26T23:27:59;1.90;99.90
13375;DHT22;6756;51.354;15.754;2024-02-26T23:32:00;1.90;99.90
13375;DHT22;6756;51.354;15.754;2024-02-26T23:36:01;1.90;99.90
13375;DHT22;6756;51.354;15.754;2024-02-26T23:40:05;1.90;99.90
13375;DHT22;6756;51.354;15.754;2024-02-26T23:44:06;1.90;99.90
13375;DHT22;6756;51.354;15.754;2024-02-26T23:48:07;1.90;99.90
13375;DHT22;6756;51.354;15.754;2024-02-26T23:52:08;1.80;99.90
13375;DHT22;6756;51.354;15.754;2024-02-26T23:56:10;1.90;99.90
